Time;durP1;ratioP1;P1;durP2;ratioP2;P2;SDS_P1;SDS_P2;PMS_P1;PMS_P2;Temp;Humidity;BMP_temperature;BMP_pressure;BME280_temperature;BME280_humidity;BME280_pressure;Samples;Min_cycle;Max_cycle;Signal;HPM_P1;HPM_P2
2023/03/23 00:01:06;;;;;;;1.95;1.10;;;17.60;99.90;;;;;;5054738;28;20086;-66
2023/03/23 00:03:32;;;;;;;2.50;1.00;;;17.60;99.90;;;;;;5052468;28;20112;-66
2023/03/23 00:06:04;;;;;;;3.38;1.15;;;17.60;99.90;;;;;;5054613;28;20053;-66
2023/03/23 00:08:33;;;;;;;3.47;1.20;;;17.60;99.90;;;;;;5054570;28;20083;-66
2023/03/23 00:11:00;;;;;;;2.25;1.10;;;17.60;99.90;;;;;;5053910;28;20051;-66
2023/03/23 00:13:28;;;;;;;2.47;1.10;;;17.60;99.90;;;;;;5036940;28;20055;-66
2023/03/23 00:15:56;;;;;;;1.73;1.10;;;17.60;99.90;;;;;;5054882;28;20353;-66
2023/03/23 00:18:23;;;;;;;1.85;1.00;;;17.60;99.90;;;;;;5053415;28;20095;-66
2023/03/23 00:20:54;;;;;;;1.73;1.00;;;17.60;99.90;;;;;;5054808;28;20033;-67
2023/03/23 00:23:25;;;;;;;4.22;1.10;;;17.60;99.90;;;;;;5054493;28;20029;-66
2023/03/23 00:25:56;;;;;;;3.28;1.20;;;17.60;99.90;;;;;;5054703;28;20033;-66
2023/03/23 00:28:24;;;;;;;2.08;1.08;;;17.60;99.90;;;;;;5054416;28;20055;-66
2023/03/23 00:30:59;;;;;;;2.45;1.00;;;17.60;99.90;;;;;;5054659;28;20107;-66
2023/03/23 00:33:26;;;;;;;3.92;1.33;;;17.60;99.90;;;;;;5035829;28;20052;-66
2023/03/23 00:35:54;;;;;;;2.42;1.20;;;17.60;99.90;;;;;;5054575;28;20029;-66
2023/03/23 00:38:21;;;;;;;3.70;0.90;;;17.60;99.90;;;;;;5036415;28;20159;-66
2023/03/23 00:40:48;;;;;;;2.30;1.15;;;17.60;99.90;;;;;;5054507;28;20044;-66
2023/03/23 00:43:20;;;;;;;1.92;1.10;;;17.60;99.90;;;;;;5052937;28;20412;-66
2023/03/23 00:45:52;;;;;;;1.75;1.08;;;17.60;99.90;;;;;;5054298;28;20056;-66
2023/03/23 00:48:23;;;;;;;2.45;1.10;;;17.60;99.90;;;;;;5053038;28;20045;-66
2023/03/23 00:50:49;;;;;;;2.15;1.13;;;17.60;99.90;;;;;;5053533;28;20428;-66
2023/03/23 00:53:17;;;;;;;3.22;1.20;;;17.60;99.90;;;;;;5036184;28;20044;-66
2023/03/23 00:55:44;;;;;;;3.00;1.20;;;17.60;99.90;;;;;;5054346;28;20033;-66
2023/03/23 00:58:11;;;;;;;2.15;1.30;;;17.60;99.90;;;;;;5053952;28;20029;-66
2023/03/23 01:00:38;;;;;;;2.38;1.30;;;17.60;99.90;;;;;;5057103;28;20428;-66
2023/03/23 01:03:05;;;;;;;4.55;1.35;;;17.60;99.90;;;;;;5039140;28;20332;-66
2023/03/23 01:05:38;;;;;;;3.97;1.50;;;17.60;99.90;;;;;;5057192;28;20029;-66
2023/03/23 01:08:05;;;;;;;3.03;1.42;;;17.60;99.90;;;;;;5056570;28;20090;-66
2023/03/23 01:10:32;;;;;;;2.97;1.30;;;17.50;99.90;;;;;;5057130;28;20025;-66
2023/03/23 01:13:01;;;;;;;1.98;1.15;;;17.60;99.90;;;;;;5057729;28;20327;-66
2023/03/23 01:15:29;;;;;;;2.85;1.40;;;17.50;99.90;;;;;;5056871;28;20638;-66
2023/03/23 01:17:55;;;;;;;3.47;1.50;;;17.60;99.90;;;;;;5056472;28;20072;-66
2023/03/23 01:20:22;;;;;;;2.60;1.20;;;17.60;99.90;;;;;;5057672;28;20735;-66
2023/03/23 01:22:48;;;;;;;3.88;1.50;;;17.50;99.90;;;;;;5056620;28;20443;-66
2023/03/23 01:25:14;;;;;;;3.28;1.52;;;17.50;99.90;;;;;;5057234;28;20029;-66
2023/03/23 01:27:40;;;;;;;2.90;1.33;;;17.50;99.90;;;;;;5056601;28;20087;-66
2023/03/23 01:30:08;;;;;;;4.07;1.48;;;17.50;99.90;;;;;;5057391;28;20021;-66
2023/03/23 01:32:35;;;;;;;3.17;1.25;;;17.50;99.90;;;;;;5056922;28;20037;-66
2023/03/23 01:35:01;;;;;;;2.45;1.40;;;17.50;99.90;;;;;;5039818;28;20417;-66
2023/03/23 01:37:27;;;;;;;1.75;1.10;;;17.50;99.90;;;;;;5039814;28;20044;-66
2023/03/23 01:39:56;;;;;;;3.15;1.20;;;17.50;99.90;;;;;;5056209;28;20064;-66
2023/03/23 01:42:30;;;;;;;2.78;1.13;;;17.50;99.90;;;;;;5056289;28;20021;-66
2023/03/23 01:45:19;;;;;;;3.08;1.40;;;17.50;99.90;;;;;;5052695;28;20026;-66
2023/03/23 01:47:50;;;;;;;3.08;1.50;;;17.50;99.90;;;;;;5035422;28;20037;-66
2023/03/23 01:50:18;;;;;;;2.80;1.38;;;17.50;99.90;;;;;;5036073;28;20040;-66
2023/03/23 01:52:44;;;;;;;2.45;1.40;;;17.50;99.90;;;;;;5036094;28;20044;-66
2023/03/23 01:55:11;;;;;;;2.80;1.50;;;17.50;99.90;;;;;;5037056;28;20112;-66
2023/03/23 01:57:37;;;;;;;2.63;1.60;;;17.50;99.90;;;;;;5035955;28;20113;-66
2023/03/23 02:00:10;;;;;;;3.00;1.40;;;17.50;99.90;;;;;;5036054;28;20060;-66
2023/03/23 02:02:49;;;;;;;3.58;1.38;;;17.50;99.90;;;;;;5035041;28;20602;-66
2023/03/23 02:05:28;;;;;;;3.40;1.48;;;17.40;99.90;;;;;;5019401;28;20091;-66
2023/03/23 02:08:02;;;;;;;5.47;1.60;;;17.50;99.90;;;;;;5019375;28;20454;-66
2023/03/23 02:10:32;;;;;;;1.98;1.27;;;17.40;99.90;;;;;;5035382;28;20495;-66
2023/03/23 02:13:00;;;;;;;2.60;1.30;;;17.40;99.90;;;;;;5035811;28;20029;-67
2023/03/23 02:15:52;;;;;;;4.15;1.67;;;17.50;99.90;;;;;;5035679;28;20213;-66
2023/03/23 02:18:50;;;;;;;3.15;1.33;;;17.40;99.90;;;;;;5050633;28;20057;-66
2023/03/23 02:21:22;;;;;;;;;;;17.40;99.90;;;;;;5037114;28;20079;-66
2023/03/23 02:24:10;;;;;;;2.42;1.38;;;17.40;99.90;;;;;;5035625;28;19913;-66
2023/03/23 02:26:45;;;;;;;3.30;1.38;;;17.40;99.90;;;;;;5035749;28;20025;-66
2023/03/23 02:29:21;;;;;;;4.20;1.40;;;17.40;99.90;;;;;;5036201;28;20038;-66
2023/03/23 02:32:11;;;;;;;4.00;1.35;;;17.40;99.90;;;;;;5036772;28;20033;-66
2023/03/23 02:34:51;;;;;;;2.28;1.20;;;17.40;99.90;;;;;;5034462;28;20029;-66
2023/03/23 02:37:26;;;;;;;2.45;1.30;;;17.40;99.90;;;;;;5051807;28;20236;-66
2023/03/23 02:40:08;;;;;;;4.80;1.40;;;17.40;99.90;;;;;;5035175;28;20034;-66
2023/03/23 02:42:39;;;;;;;2.97;1.30;;;17.40;99.90;;;;;;5035274;28;20026;-66
2023/03/23 02:45:10;;;;;;;2.55;1.20;;;17.40;99.90;;;;;;5036168;28;20026;-66
2023/03/23 02:47:38;;;;;;;3.30;1.30;;;17.40;99.90;;;;;;5034501;28;20064;-67
2023/03/23 02:50:07;;;;;;;2.15;1.13;;;17.40;99.90;;;;;;5053324;28;20029;-66
2023/03/23 02:52:36;;;;;;;2.60;1.20;;;17.40;99.90;;;;;;5055858;28;20106;-66
2023/03/23 02:55:04;;;;;;;1.85;1.00;;;17.40;99.90;;;;;;5046124;28;20025;-66
2023/03/23 02:57:31;;;;;;;2.50;1.25;;;17.40;99.90;;;;;;5034637;28;20037;-66
2023/03/23 02:59:59;;;;;;;2.75;1.30;;;17.40;99.90;;;;;;5051481;28;20041;-66
2023/03/23 03:02:29;;;;;;;3.08;1.25;;;17.40;99.90;;;;;;5034945;28;20443;-66
2023/03/23 03:05:09;;;;;;;2.65;1.27;;;17.40;99.90;;;;;;5035240;28;20105;-66
2023/03/23 03:08:03;;;;;;;3.75;1.20;;;17.30;99.90;;;;;;5034543;28;20111;-66
2023/03/23 03:10:51;;;;;;;3.45;1.40;;;17.40;99.90;;;;;;5034693;28;20033;-66
2023/03/23 03:13:38;;;;;;;2.85;1.20;;;17.30;99.90;;;;;;5035426;28;20033;-66
2023/03/23 03:16:07;;;;;;;3.47;1.23;;;17.30;99.90;;;;;;5034747;28;20100;-66
2023/03/23 03:18:39;;;;;;;2.67;1.23;;;17.30;99.90;;;;;;5033408;28;20055;-66
2023/03/23 03:21:10;;;;;;;3.92;1.27;;;17.30;99.90;;;;;;5041457;28;20025;-66
2023/03/23 03:23:41;;;;;;;4.45;1.73;;;17.30;99.90;;;;;;5054107;28;20100;-66
2023/03/23 03:26:09;;;;;;;3.03;1.20;;;17.30;99.90;;;;;;5054539;28;20084;-66
2023/03/23 03:28:48;;;;;;;2.53;1.00;;;17.30;99.90;;;;;;5054177;28;20037;-66
2023/03/23 03:31:18;;;;;;;3.50;1.55;;;17.30;99.90;;;;;;5037628;28;20033;-66
2023/03/23 03:33:45;;;;;;;3.00;1.30;;;17.30;99.90;;;;;;5053214;28;20025;-66
2023/03/23 03:36:18;;;;;;;4.20;1.27;;;17.30;99.90;;;;;;5054387;28;20052;-66
2023/03/23 03:38:46;;;;;;;3.65;1.40;;;17.30;99.90;;;;;;5054115;28;20029;-66
2023/03/23 03:41:14;;;;;;;2.60;1.17;;;17.30;99.90;;;;;;5054306;28;20029;-66
2023/03/23 03:43:40;;;;;;;2.67;1.13;;;17.30;99.90;;;;;;5054715;28;20029;-66
2023/03/23 03:46:05;;;;;;;3.75;1.45;;;17.30;99.90;;;;;;5042296;28;20033;-66
2023/03/23 03:48:32;;;;;;;2.15;1.10;;;17.30;99.90;;;;;;5032841;28;20151;-67
2023/03/23 03:51:00;;;;;;;3.25;1.10;;;17.30;99.90;;;;;;5035199;28;20416;-66
2023/03/23 03:53:27;;;;;;;3.17;1.20;;;17.30;99.90;;;;;;5033581;28;20052;-67
2023/03/23 03:55:59;;;;;;;4.00;1.27;;;17.30;99.90;;;;;;5034123;28;20029;-66
2023/03/23 03:58:35;;;;;;;3.00;1.00;;;17.30;99.90;;;;;;5033679;28;20108;-66
2023/03/23 04:01:02;;;;;;;2.70;1.13;;;17.30;99.90;;;;;;5035220;28;20030;-66
2023/03/23 04:03:32;;;;;;;4.40;1.10;;;17.30;99.90;;;;;;5050414;28;20413;-66
2023/03/23 04:06:09;;;;;;;2.63;1.08;;;17.30;99.90;;;;;;5023923;28;20040;-66
2023/03/23 04:08:37;;;;;;;2.58;1.05;;;17.30;99.90;;;;;;5036438;28;20367;-66
2023/03/23 04:11:04;;;;;;;2.88;1.30;;;17.20;99.90;;;;;;5053856;28;20163;-66
2023/03/23 04:13:31;;;;;;;4.07;1.27;;;17.20;99.90;;;;;;5036859;28;20474;-66
2023/03/23 04:16:08;;;;;;;3.28;1.20;;;17.30;99.90;;;;;;5053751;28;20033;-66
2023/03/23 04:18:35;;;;;;;5.45;1.50;;;17.20;99.90;;;;;;5052102;28;20048;-66
2023/03/23 04:21:02;;;;;;;3.00;1.20;;;17.20;99.90;;;;;;5053712;28;20041;-66
2023/03/23 04:23:33;;;;;;;3.38;1.20;;;17.20;99.90;;;;;;5053209;28;20367;-66
2023/03/23 04:26:03;;;;;;;3.17;1.20;;;17.20;99.90;;;;;;5054825;28;20476;-66
2023/03/23 04:28:34;;;;;;;3.08;1.15;;;17.30;99.90;;;;;;5053228;28;20032;-66
2023/03/23 04:31:19;;;;;;;2.83;1.30;;;17.20;99.90;;;;;;5054707;28;20041;-66
2023/03/23 04:33:54;;;;;;;1.98;1.00;;;17.20;99.90;;;;;;5056291;28;20033;-66
2023/03/23 04:36:23;;;;;;;3.08;1.30;;;17.20;99.90;;;;;;5041344;28;20424;-66
2023/03/23 04:39:02;;;;;;;3.67;1.10;;;17.20;99.90;;;;;;5057415;28;20033;-66
2023/03/23 04:41:30;;;;;;;3.55;1.30;;;17.20;99.90;;;;;;5057418;28;20029;-66
2023/03/23 04:44:17;;;;;;;5.57;1.20;;;17.20;99.90;;;;;;5057171;28;20171;-66
2023/03/23 04:46:49;;;;;;;3.72;1.30;;;17.20;99.90;;;;;;5040436;28;20033;-66
2023/03/23 04:49:21;;;;;;;3.35;1.30;;;17.20;99.90;;;;;;5039901;28;20028;-67
2023/03/23 04:51:50;;;;;;;4.60;1.40;;;17.20;99.90;;;;;;5041036;28;20037;-66
2023/03/23 04:54:27;;;;;;;4.53;1.20;;;17.20;99.90;;;;;;5057003;28;20040;-66
2023/03/23 04:56:55;;;;;;;4.60;1.30;;;17.20;99.90;;;;;;5057359;28;20041;-66
2023/03/23 04:59:27;;;;;;;3.03;1.10;;;17.20;99.90;;;;;;5040460;28;20032;-66
2023/03/23 05:02:07;;;;;;;;;;;17.20;99.90;;;;;;5057625;28;20039;-66
2023/03/23 05:04:34;;;;;;;7.15;1.75;;;17.20;99.90;;;;;;5055724;28;19919;-66
2023/03/23 05:07:10;;;;;;;4.25;1.30;;;17.10;99.90;;;;;;5057173;28;20029;-66
2023/03/23 05:09:41;;;;;;;4.53;1.40;;;17.20;99.90;;;;;;5040166;28;20033;-66
2023/03/23 05:12:09;;;;;;;3.85;1.50;;;17.20;99.90;;;;;;5057113;28;20029;-66
2023/03/23 05:14:44;;;;;;;2.42;1.02;;;17.20;99.90;;;;;;5056492;28;20360;-66
2023/03/23 05:17:16;;;;;;;5.50;1.35;;;17.10;99.90;;;;;;5057027;28;20450;-66
2023/03/23 05:19:47;;;;;;;4.78;1.42;;;17.20;99.90;;;;;;5055220;28;20053;-66
2023/03/23 05:22:33;;;;;;;4.03;1.33;;;17.10;99.90;;;;;;5056532;28;20428;-67
2023/03/23 05:25:03;;;;;;;5.43;1.40;;;17.10;99.90;;;;;;5056909;28;20025;-66
2023/03/23 05:27:33;;;;;;;3.40;1.20;;;17.10;99.90;;;;;;5056401;28;20076;-66
2023/03/23 05:30:04;;;;;;;6.03;1.60;;;17.10;99.90;;;;;;5040190;28;20037;-66
2023/03/23 05:32:32;;;;;;;3.72;1.20;;;17.10;99.90;;;;;;5055704;28;20037;-66
2023/03/23 05:35:09;;;;;;;3.95;1.15;;;17.10;99.90;;;;;;5056636;28;20037;-66
2023/03/23 05:37:35;;;;;;;3.88;1.50;;;17.10;99.90;;;;;;5056199;28;20090;-66
2023/03/23 05:40:08;;;;;;;4.78;1.42;;;17.10;99.90;;;;;;5056537;28;20103;-67
2023/03/23 05:42:47;;;;;;;6.00;1.63;;;17.10;99.90;;;;;;5057094;28;20055;-66
2023/03/23 05:45:18;;;;;;;5.22;1.33;;;17.10;99.90;;;;;;5049435;28;20033;-66
2023/03/23 05:47:45;;;;;;;4.25;1.10;;;17.10;99.90;;;;;;5051881;28;20546;-66
2023/03/23 05:50:17;;;;;;;4.07;1.40;;;17.10;99.90;;;;;;5034997;28;20025;-66
2023/03/23 05:52:43;;;;;;;6.13;1.67;;;17.20;99.90;;;;;;5035439;28;20033;-66
2023/03/23 05:55:12;;;;;;;4.68;1.25;;;17.10;99.90;;;;;;5034543;28;20037;-67
2023/03/23 05:57:40;;;;;;;4.35;1.45;;;17.10;99.90;;;;;;5050966;28;20042;-66
2023/03/23 06:00:28;;;;;;;6.07;1.88;;;17.20;99.90;;;;;;5035904;28;20026;-67
2023/03/23 06:03:03;;;;;;;4.60;1.30;;;17.10;99.90;;;;;;5051391;28;20032;-66
2023/03/23 06:05:35;;;;;;;6.65;1.40;;;17.10;99.90;;;;;;5035602;28;20037;-66
2023/03/23 06:08:02;;;;;;;6.60;1.45;;;17.10;99.90;;;;;;5035660;28;20336;-66
2023/03/23 06:10:28;;;;;;;6.40;1.40;;;17.10;99.90;;;;;;5035734;28;20112;-66
2023/03/23 06:12:58;;;;;;;5.90;1.60;;;17.10;99.90;;;;;;5054995;28;20057;-66
2023/03/23 06:15:32;;;;;;;5.20;1.58;;;17.10;99.90;;;;;;5054841;28;20104;-66
2023/03/23 06:18:18;;;;;;;5.72;1.40;;;17.10;99.90;;;;;;5052400;28;20510;-66
2023/03/23 06:21:07;;;;;;;7.93;1.65;;;17.10;99.90;;;;;;5055499;28;20033;-66
2023/03/23 06:23:50;;;;;;;5.47;1.45;;;17.10;99.90;;;;;;5054880;28;20037;-66
2023/03/23 06:26:19;;;;;;;3.85;1.55;;;17.10;99.90;;;;;;5039114;28;20424;-70
2023/03/23 06:28:50;;;;;;;5.15;1.80;;;17.10;99.90;;;;;;5054959;28;20887;-71
2023/03/23 06:31:19;;;;;;;8.73;1.60;;;17.10;99.90;;;;;;5053555;28;20057;-73
2023/03/23 06:33:47;;;;;;;3.83;1.30;;;17.10;99.90;;;;;;5057572;28;20040;-74
2023/03/23 06:36:26;;;;;;;10.02;1.75;;;17.10;99.90;;;;;;5053365;28;20029;-74
2023/03/23 06:39:24;;;;;;;5.63;1.50;;;17.10;99.90;;;;;;5033806;28;20033;-74
2023/03/23 06:42:11;;;;;;;4.75;1.33;;;17.10;99.90;;;;;;5051705;28;20041;-74
2023/03/23 06:44:41;;;;;;;6.85;1.52;;;17.10;99.90;;;;;;5035570;28;20055;-69
2023/03/23 06:47:07;;;;;;;4.57;1.35;;;17.10;99.90;;;;;;5052980;28;20082;-73
2023/03/23 06:49:36;;;;;;;5.07;1.23;;;17.10;99.90;;;;;;5053402;28;20037;-70
2023/03/23 06:52:14;;;;;;;7.43;1.50;;;17.10;99.90;;;;;;5055141;28;20033;-69
2023/03/23 06:54:40;;;;;;;5.38;1.40;;;17.10;99.90;;;;;;5054511;28;20032;-69
2023/03/23 06:57:08;;;;;;;4.95;1.50;;;17.10;99.90;;;;;;5052275;28;20041;-70
2023/03/23 06:59:34;;;;;;;5.95;1.40;;;17.10;99.90;;;;;;5054431;28;20476;-70
2023/03/23 07:02:01;;;;;;;6.03;1.67;;;17.10;99.90;;;;;;5054482;28;20324;-70
2023/03/23 07:04:27;;;;;;;4.50;1.45;;;17.10;99.90;;;;;;5020725;28;20033;-70
2023/03/23 07:07:07;;;;;;;5.10;1.55;;;17.10;99.90;;;;;;5054851;28;20040;-70
2023/03/23 07:09:42;;;;;;;4.28;1.40;;;17.10;99.90;;;;;;5054423;28;20036;-70
2023/03/23 07:12:08;;;;;;;4.53;1.40;;;17.10;99.90;;;;;;5054676;28;20060;-70
2023/03/23 07:14:40;;;;;;;4.65;1.30;;;17.10;99.90;;;;;;5054188;28;20033;-70
2023/03/23 07:17:07;;;;;;;4.65;1.40;;;17.10;99.90;;;;;;5054506;28;20071;-70
2023/03/23 07:19:37;;;;;;;5.88;1.60;;;17.10;99.90;;;;;;5052932;28;20057;-70
2023/03/23 07:22:05;;;;;;;4.93;1.50;;;17.10;99.90;;;;;;5055629;28;20029;-71
2023/03/23 07:24:31;;;;;;;8.73;1.88;;;17.10;99.90;;;;;;5054092;28;20435;-70
2023/03/23 07:27:09;;;;;;;4.72;1.60;;;17.10;99.90;;;;;;5054436;28;20033;-70
2023/03/23 07:29:38;;;;;;;6.03;1.48;;;17.10;99.90;;;;;;5053870;28;20061;-70
2023/03/23 07:32:11;;;;;;;5.90;1.50;;;17.10;99.90;;;;;;5053849;28;20086;-69
2023/03/23 07:34:38;;;;;;;7.97;1.70;;;17.10;99.90;;;;;;5053478;28;20097;-70
2023/03/23 07:37:16;;;;;;;7.18;1.60;;;17.10;99.90;;;;;;5053790;28;20041;-70
2023/03/23 07:39:46;;;;;;;7.97;1.80;;;17.10;99.90;;;;;;5053668;28;20033;-70
2023/03/23 07:42:12;;;;;;;6.57;1.83;;;17.10;99.90;;;;;;5054252;28;20069;-69
2023/03/23 07:44:47;;;;;;;5.70;1.73;;;17.10;99.90;;;;;;5036269;28;20033;-70
2023/03/23 07:47:13;;;;;;;6.03;1.58;;;17.10;99.90;;;;;;5034096;28;20048;-69
2023/03/23 07:49:40;;;;;;;6.78;1.70;;;17.10;99.90;;;;;;5049355;28;20115;-70
2023/03/23 07:52:23;;;;;;;10.25;1.92;;;17.10;99.90;;;;;;5034141;28;20056;-70
2023/03/23 07:54:49;;;;;;;5.72;1.70;;;17.10;99.90;;;;;;5050776;28;20373;-70
2023/03/23 07:57:26;;;;;;;4.80;1.60;;;17.10;99.90;;;;;;5053906;28;20340;-70
2023/03/23 07:59:53;;;;;;;9.43;2.00;;;17.10;99.90;;;;;;5053612;28;20033;-70
2023/03/23 08:02:19;;;;;;;7.57;1.70;;;17.10;99.90;;;;;;5053857;28;20420;-70
2023/03/23 08:05:15;;;;;;;5.15;1.58;;;17.10;99.90;;;;;;5049887;28;20041;-70
2023/03/23 08:08:07;;;;;;;5.57;1.70;;;17.20;99.90;;;;;;5053256;28;20037;-70
2023/03/23 08:10:56;;;;;;;8.00;1.75;;;17.10;99.90;;;;;;5044190;28;20128;-70
2023/03/23 08:13:42;;;;;;;7.97;1.95;;;17.10;99.90;;;;;;5053104;28;20053;-69
2023/03/23 08:16:33;;;;;;;6.80;1.58;;;17.10;99.90;;;;;;5053655;28;20090;-70
2023/03/23 08:19:05;;;;;;;7.88;2.03;;;17.10;99.90;;;;;;5053564;28;20126;-69
2023/03/23 08:21:45;;;;;;;5.75;1.70;;;17.10;99.90;;;;;;5052818;28;20033;-70
2023/03/23 08:24:11;;;;;;;7.53;2.00;;;17.10;99.90;;;;;;5054486;28;20025;-70
2023/03/23 08:26:57;;;;;;;5.78;1.67;;;17.10;99.90;;;;;;5045380;28;20053;-69
2023/03/23 08:29:52;;;;;;;5.70;1.70;;;17.20;99.90;;;;;;5034462;28;20049;-70
2023/03/23 08:32:39;;;;;;;7.93;1.80;;;17.20;99.90;;;;;;5053163;28;20045;-70
2023/03/23 08:35:21;;;;;;;8.32;2.22;;;17.20;99.90;;;;;;5053541;28;20028;-70
2023/03/23 08:38:05;;;;;;;8.38;2.15;;;17.20;99.90;;;;;;5054258;28;20045;-70
2023/03/23 08:40:46;;;;;;;6.82;2.00;;;17.20;99.90;;;;;;5053183;28;20025;-70
2023/03/23 08:43:34;;;;;;;7.43;1.80;;;17.20;99.90;;;;;;5052938;28;20048;-70
2023/03/23 08:46:19;;;;;;;7.55;1.80;;;17.30;99.90;;;;;;5049856;28;20032;-70
2023/03/23 08:49:05;;;;;;;5.78;1.65;;;17.20;99.90;;;;;;5033208;28;20156;-70
2023/03/23 08:51:50;;;;;;;7.93;2.47;;;17.30;99.90;;;;;;5034251;28;20061;-70
2023/03/23 08:54:32;;;;;;;7.20;2.08;;;17.20;99.90;;;;;;5033228;28;20038;-70
2023/03/23 08:57:18;;;;;;;4.75;1.70;;;17.30;99.90;;;;;;5034318;28;20038;-70
2023/03/23 08:59:59;;;;;;;6.25;1.80;;;17.30;99.90;;;;;;5033139;28;20417;-70
2023/03/23 09:03:02;;;;;;;6.97;1.80;;;17.30;99.90;;;;;;5026791;28;20495;-70
2023/03/23 09:05:42;;;;;;;5.53;1.67;;;17.30;99.90;;;;;;5017081;28;20048;-70
2023/03/23 09:08:23;;;;;;;6.97;1.92;;;17.30;99.90;;;;;;5018669;28;20026;-69
2023/03/23 09:10:49;;;;;;;7.50;1.83;;;17.30;99.90;;;;;;5034065;28;20471;-70
2023/03/23 09:13:15;;;;;;;7.85;2.13;;;17.40;99.90;;;;;;5034038;28;20375;-70
2023/03/23 09:15:42;;;;;;;6.45;1.83;;;17.40;99.90;;;;;;5033931;28;20021;-70
2023/03/23 09:18:08;;;;;;;6.88;2.22;;;17.40;99.90;;;;;;5032872;28;20037;-69
2023/03/23 09:20:33;;;;;;;7.28;1.70;;;17.40;99.90;;;;;;5037290;28;20029;-70
2023/03/23 09:22:59;;;;;;;7.40;2.08;;;17.40;99.90;;;;;;5040146;28;20037;-70
2023/03/23 09:25:27;;;;;;;8.77;2.10;;;17.40;99.90;;;;;;5057775;28;20120;-70
2023/03/23 09:27:56;;;;;;;7.18;1.98;;;17.40;99.90;;;;;;5055949;28;20032;-69
2023/03/23 09:30:28;;;;;;;5.82;2.00;;;17.40;99.90;;;;;;5057673;28;20347;-70
2023/03/23 09:32:54;;;;;;;9.02;2.53;;;17.40;99.90;;;;;;5056262;28;20029;-70
2023/03/23 09:35:21;;;;;;;6.63;2.00;;;17.40;99.90;;;;;;5057632;28;20071;-70
2023/03/23 09:37:49;;;;;;;7.15;1.95;;;17.40;99.90;;;;;;5057074;28;20064;-70
2023/03/23 09:40:30;;;;;;;5.85;2.10;;;17.40;99.90;;;;;;5057476;28;20029;-70
2023/03/23 09:43:29;;;;;;;6.85;2.00;;;17.50;99.90;;;;;;5057025;28;20371;-70
2023/03/23 09:46:08;;;;;;;6.63;1.90;;;17.50;99.90;;;;;;5045749;28;20030;-70
2023/03/23 09:48:58;;;;;;;5.43;1.90;;;17.50;99.90;;;;;;5036176;28;20048;-70
2023/03/23 09:51:45;;;;;;;6.75;1.90;;;17.50;99.90;;;;;;5037324;28;20040;-70
2023/03/23 09:54:27;;;;;;;7.10;2.00;;;17.50;99.90;;;;;;5037124;28;20052;-69
2023/03/23 09:56:55;;;;;;;6.72;2.15;;;17.50;99.90;;;;;;5036850;28;20036;-70
2023/03/23 09:59:54;;;;;;;6.57;1.98;;;17.50;99.90;;;;;;5035966;28;20083;-70
2023/03/23 10:02:38;;;;;;;8.18;2.20;;;17.50;99.90;;;;;;5035976;28;20021;-70
2023/03/23 10:05:27;;;;;;;7.07;2.25;;;17.50;99.90;;;;;;5035772;28;20077;-70
2023/03/23 10:07:54;;;;;;;7.00;2.13;;;17.50;99.90;;;;;;5036393;28;20413;-70
2023/03/23 10:10:29;;;;;;;8.57;2.55;;;17.50;99.90;;;;;;5036757;28;20486;-69
2023/03/23 10:13:23;;;;;;;7.43;2.05;;;17.50;99.90;;;;;;5036566;28;20059;-70
2023/03/23 10:15:50;;;;;;;5.50;1.77;;;17.50;99.90;;;;;;5021408;28;20130;-70
2023/03/23 10:18:27;;;;;;;7.72;2.13;;;17.50;99.90;;;;;;5035634;28;20136;-70
2023/03/23 10:20:59;;;;;;;11.23;2.53;;;17.50;99.90;;;;;;5036483;28;20022;-70
2023/03/23 10:23:57;;;;;;;6.38;1.73;;;17.50;99.90;;;;;;5036600;28;20033;-70
2023/03/23 10:26:38;;;;;;;7.70;2.08;;;17.60;99.90;;;;;;5022639;28;20108;-69
2023/03/23 10:29:31;;;;;;;8.10;2.15;;;17.60;99.90;;;;;;5036298;28;20163;-70
2023/03/23 10:32:09;;;;;;;6.65;2.08;;;17.60;99.90;;;;;;5036079;28;20589;-70
2023/03/23 10:34:52;;;;;;;7.38;2.30;;;17.60;99.90;;;;;;5035439;28;20026;-70
2023/03/23 10:37:21;;;;;;;7.47;2.30;;;17.60;99.90;;;;;;5036525;28;20159;-70
2023/03/23 10:39:55;;;;;;;8.50;2.28;;;17.60;99.90;;;;;;5036107;28;20029;-70
2023/03/23 10:42:26;;;;;;;7.75;1.83;;;17.60;99.90;;;;;;5036448;28;20401;-70
2023/03/23 10:44:54;;;;;;;6.20;2.15;;;17.60;99.90;;;;;;5038391;28;20032;-70
2023/03/23 10:47:20;;;;;;;6.90;2.15;;;17.60;99.90;;;;;;5056148;28;20029;-70
2023/03/23 10:49:54;;;;;;;9.82;2.38;;;17.60;99.90;;;;;;5055002;28;20053;-70
2023/03/23 10:52:37;;;;;;;9.00;2.60;;;17.60;99.90;;;;;;5056251;28;20448;-70
2023/03/23 10:55:13;;;;;;;8.23;2.13;;;17.60;99.90;;;;;;5056158;28;20375;-70
2023/03/23 10:57:42;;;;;;;6.90;2.20;;;17.60;99.90;;;;;;5055770;28;20313;-70
2023/03/23 11:00:26;;;;;;;6.82;2.40;;;17.60;99.90;;;;;;5055810;28;20037;-70
2023/03/23 11:03:06;;;;;;;7.15;2.20;;;17.60;99.90;;;;;;5054559;28;20056;-70
2023/03/23 11:05:44;;;;;;;9.63;2.42;;;17.60;99.90;;;;;;5055872;28;20128;-70
2023/03/23 11:08:13;;;;;;;8.05;2.20;;;17.60;99.90;;;;;;5054456;28;20032;-70
2023/03/23 11:10:47;;;;;;;7.65;2.08;;;17.70;99.90;;;;;;5055981;28;20128;-70
2023/03/23 11:13:15;;;;;;;8.63;2.45;;;17.70;99.90;;;;;;5055494;28;20361;-70
2023/03/23 11:15:44;;;;;;;7.97;2.28;;;17.70;99.90;;;;;;5055618;28;20025;-70
2023/03/23 11:18:35;;;;;;;7.97;2.10;;;17.70;99.90;;;;;;5054429;28;20031;-70
2023/03/23 11:21:03;;;;;;;7.40;2.10;;;17.70;99.90;;;;;;5055286;28;20064;-70
2023/03/23 11:23:59;;;;;;;7.13;1.83;;;17.70;99.90;;;;;;5054804;28;20107;-70
2023/03/23 11:26:31;;;;;;;8.18;2.50;;;17.70;99.90;;;;;;5054451;28;20075;-70
2023/03/23 11:28:58;;;;;;;7.00;1.92;;;17.70;99.90;;;;;;5054655;28;20107;-70
2023/03/23 11:31:50;;;;;;;8.88;2.55;;;17.80;99.90;;;;;;5054862;28;20021;-71
2023/03/23 11:34:43;;;;;;;6.07;1.80;;;17.80;99.90;;;;;;5053842;28;20033;-70
2023/03/23 11:37:17;;;;;;;5.70;2.10;;;17.80;99.90;;;;;;5051797;28;20061;-70
2023/03/23 11:39:55;;;;;;;7.65;2.40;;;17.80;99.90;;;;;;5054007;28;20036;-70
2023/03/23 11:42:37;;;;;;;6.38;1.90;;;17.80;99.90;;;;;;5054669;28;20025;-70
2023/03/23 11:45:18;;;;;;;5.70;2.10;;;17.80;99.90;;;;;;5054722;28;20025;-70
2023/03/23 11:48:03;;;;;;;7.13;2.05;;;17.80;99.90;;;;;;5054066;28;20123;-70
2023/03/23 11:50:42;;;;;;;6.88;2.03;;;17.80;99.90;;;;;;5054742;28;20024;-70
2023/03/23 11:53:37;;;;;;;5.40;1.65;;;17.80;99.90;;;;;;5054515;28;20179;-69
2023/03/23 11:56:11;;;;;;;5.75;1.85;;;17.90;99.90;;;;;;5054221;28;20132;-69
2023/03/23 11:58:37;;;;;;;7.60;2.28;;;17.80;99.90;;;;;;5054879;28;20040;-70
2023/03/23 12:01:06;;;;;;;5.65;1.92;;;17.80;99.90;;;;;;5054608;28;20078;-68
2023/03/23 12:03:50;;;;;;;8.07;1.88;;;17.90;99.90;;;;;;5053797;28;20021;-69
2023/03/23 12:06:57;;;;;;;7.35;1.83;;;17.90;99.90;;;;;;5054539;28;20033;-69
2023/03/23 12:09:41;;;;;;;6.22;1.98;;;17.90;99.90;;;;;;5017483;28;20100;-69
2023/03/23 12:12:18;;;;;;;6.03;2.15;;;17.90;99.90;;;;;;5054574;28;20025;-69
2023/03/23 12:15:04;;;;;;;7.20;2.10;;;17.90;99.90;;;;;;5054590;28;20083;-70
2023/03/23 12:17:30;;;;;;;6.78;1.95;;;17.90;99.90;;;;;;5054159;28;20033;-69
2023/03/23 12:19:57;;;;;;;6.53;2.17;;;17.90;99.90;;;;;;5053915;28;20048;-69
2023/03/23 12:22:45;;;;;;;6.15;2.00;;;17.90;99.90;;;;;;5054733;28;20025;-69
2023/03/23 12:25:29;;;;;;;5.45;1.73;;;17.90;99.90;;;;;;5054436;28;20074;-70
2023/03/23 12:28:01;;;;;;;7.63;2.28;;;17.90;99.90;;;;;;5054475;28;20032;-69
2023/03/23 12:30:41;;;;;;;7.30;1.80;;;17.90;99.90;;;;;;5053744;28;20053;-69
2023/03/23 12:33:17;;;;;;;7.07;2.40;;;17.90;99.90;;;;;;5053035;28;20029;-69
2023/03/23 12:35:42;;;;;;;;;;;18.00;99.90;;;;;;5055186;28;20349;-70
2023/03/23 12:38:32;;;;;;;7.82;2.28;;;17.90;99.90;;;;;;5054155;28;20015;-69
2023/03/23 12:41:16;;;;;;;8.13;2.22;;;17.90;99.90;;;;;;5054364;28;20064;-70
2023/03/23 12:44:01;;;;;;;8.70;2.40;;;17.90;99.90;;;;;;5054314;28;20084;-69
2023/03/23 12:46:36;;;;;;;6.13;1.90;;;18.00;99.90;;;;;;5054191;28;20048;-70
2023/03/23 12:49:20;;;;;;;7.85;2.08;;;18.00;99.90;;;;;;5053096;28;20067;-70
2023/03/23 12:52:39;;;;;;;10.05;1.95;;;18.00;99.90;;;;;;5054349;28;20039;-69
2023/03/23 12:55:32;;;;;;;9.80;2.25;;;18.00;99.90;;;;;;5024661;28;20116;-69
2023/03/23 12:58:09;;;;;;;6.38;1.92;;;18.00;99.90;;;;;;5058062;28;20029;-70
2023/03/23 13:01:12;;;;;;;7.88;2.10;;;18.00;99.90;;;;;;5058476;28;20310;-70
2023/03/23 13:03:48;;;;;;;5.28;1.90;;;18.00;99.90;;;;;;5057163;28;20143;-70
2023/03/23 13:06:33;;;;;;;8.10;2.20;;;18.00;99.90;;;;;;5058024;28;20076;-69
2023/03/23 13:09:16;;;;;;;6.05;1.85;;;18.00;99.90;;;;;;5057853;28;20090;-69
2023/03/23 13:11:46;;;;;;;6.07;1.88;;;18.10;99.90;;;;;;5058126;28;20473;-69
2023/03/23 13:14:26;;;;;;;7.35;1.90;;;18.10;99.90;;;;;;5057581;28;20041;-70
2023/03/23 13:16:52;;;;;;;7.13;1.90;;;18.10;99.90;;;;;;5057916;28;20463;-70
2023/03/23 13:19:37;;;;;;;6.97;1.95;;;18.10;99.90;;;;;;5056253;28;20069;-70
2023/03/23 13:22:51;;;;;;;6.57;2.13;;;18.10;99.90;;;;;;5057964;28;20055;-69
2023/03/23 13:25:43;;;;;;;6.68;1.98;;;18.10;99.90;;;;;;5041051;28;20043;-70
2023/03/23 13:28:22;;;;;;;6.40;1.90;;;18.10;99.90;;;;;;5056197;28;20025;-70